createdAt,value
2018-09-08T00:00:36.143Z,6.21
2018-09-08T00:02:19.703Z,6.35
2018-09-08T00:03:59.742Z,6.28
2018-09-08T00:05:38.797Z,6.38
2018-09-08T00:07:21.098Z,6.36
2018-09-08T00:08:57.002Z,6.30
2018-09-08T00:10:33.103Z,6.28
2018-09-08T00:12:14.676Z,6.26
2018-09-08T00:13:52.738Z,6.20
2018-09-08T00:15:33.600Z,6.13
2018-09-08T00:17:13.571Z,6.15
2018-09-08T00:18:55.196Z,6.03
2018-09-08T00:20:35.539Z,6.05
2018-09-08T00:22:15.777Z,6.11
2018-09-08T00:23:56.684Z,6.14
2018-09-08T00:25:37.456Z,5.93
2018-09-08T00:27:15.513Z,5.84
2018-09-08T00:29:02.544Z,5.88
2018-09-08T00:30:38.091Z,5.83
2018-09-08T00:32:16.010Z,5.89
2018-09-08T00:33:52.123Z,5.90
2018-09-08T00:35:28.693Z,5.87
2018-09-08T00:37:03.896Z,5.88
2018-09-08T00:38:39.277Z,5.92
2018-09-08T00:40:17.944Z,5.91
2018-09-08T00:41:55.540Z,5.92
2018-09-08T00:43:31.786Z,6.04
2018-09-08T00:45:07.633Z,5.97
2018-09-08T00:47:46.118Z,6.05
2018-09-08T00:49:22.086Z,6.01
2018-09-08T00:50:57.827Z,5.99
2018-09-08T00:52:34.239Z,6.08
2018-09-08T00:54:13.123Z,6.03
2018-09-08T00:55:48.905Z,6.03
2018-09-08T00:57:24.976Z,5.98
2018-09-08T00:59:06.117Z,6.08
2018-09-08T01:00:41.698Z,6.14
2018-09-08T01:02:18.708Z,6.21
2018-09-08T01:03:55.068Z,6.12
2018-09-08T01:05:33.598Z,6.13
2018-09-08T01:07:14.361Z,6.19
2018-09-08T01:08:52.259Z,6.18
2018-09-08T01:10:30.460Z,6.16
2018-09-08T01:12:12.140Z,6.19
2018-09-08T01:13:50.194Z,6.17
2018-09-08T01:15:27.015Z,6.10
2018-09-08T01:17:02.350Z,6.14
2018-09-08T01:18:39.661Z,6.04
2018-09-08T01:20:21.960Z,6.08
2018-09-08T01:21:57.193Z,6.07
2018-09-08T01:23:37.616Z,6.07
2018-09-08T01:25:14.474Z,6.12
2018-09-08T01:26:50.133Z,6.21
2018-09-08T01:28:30.018Z,6.19
2018-09-08T01:30:08.372Z,6.14
2018-09-08T01:31:43.758Z,6.22
2018-09-08T01:33:21.168Z,6.13
2018-09-08T01:34:57.912Z,6.14
2018-09-08T01:36:34.647Z,6.08
2018-09-08T01:38:11.368Z,6.05
2018-09-08T01:39:47.495Z,6.10
2018-09-08T01:41:22.488Z,6.11
2018-09-08T01:42:58.128Z,6.02
2018-09-08T01:44:33.772Z,6.07
2018-09-08T01:46:09.344Z,6.00
2018-09-08T01:47:45.066Z,6.03
2018-09-08T01:49:20.430Z,5.98
2018-09-08T01:50:56.166Z,6.06
2018-09-08T01:52:31.729Z,5.92
2018-09-08T01:54:06.942Z,5.90
2018-09-08T01:55:42.031Z,5.99
2018-09-08T01:57:17.283Z,5.97
2018-09-08T01:58:52.452Z,6.04
2018-09-08T02:00:28.959Z,6.03
2018-09-08T02:02:03.866Z,6.08
2018-09-08T02:03:39.866Z,6.03
2018-09-08T02:05:19.521Z,6.13
2018-09-08T02:06:56.794Z,6.13
2018-09-08T02:08:31.892Z,6.06
2018-09-08T02:10:07.402Z,6.10
2018-09-08T02:11:43.771Z,6.08
2018-09-08T02:13:19.352Z,5.99
2018-09-08T02:14:55.345Z,6.07
2018-09-08T02:16:31.140Z,5.94
2018-09-08T02:18:07.399Z,5.96
2018-09-08T02:19:43.206Z,5.94
2018-09-08T02:21:19.291Z,5.91
2018-09-08T02:22:54.508Z,5.88
2018-09-08T02:24:30.586Z,5.96
2018-09-08T02:26:06.436Z,5.93
2018-09-08T02:27:42.967Z,6.00
2018-09-08T02:29:21.561Z,5.99
2018-09-08T02:30:58.605Z,6.05
2018-09-08T02:32:35.010Z,6.04
2018-09-08T02:34:10.905Z,6.01
2018-09-08T02:35:46.482Z,6.07
2018-09-08T02:37:21.852Z,5.97
2018-09-08T02:38:56.742Z,6.03
2018-09-08T02:40:32.191Z,6.01
2018-09-08T02:42:10.859Z,5.95
2018-09-08T02:43:45.970Z,5.89
2018-09-08T02:45:21.032Z,5.97
2018-09-08T02:46:56.057Z,5.95
2018-09-08T02:48:32.140Z,5.90
2018-09-08T02:50:17.705Z,5.88
2018-09-08T02:51:52.036Z,5.75
2018-09-08T02:53:25.438Z,5.72
2018-09-08T02:55:00.672Z,5.77
2018-09-08T02:56:33.892Z,5.84
2018-09-08T02:58:08.408Z,5.82
2018-09-08T02:59:41.858Z,5.83
2018-09-08T03:01:15.895Z,5.88
2018-09-08T03:02:49.508Z,5.89
2018-09-08T03:04:22.843Z,5.92
2018-09-08T03:05:56.371Z,5.93
2018-09-08T03:07:29.729Z,5.89
2018-09-08T03:09:03.165Z,5.89
2018-09-08T03:10:37.183Z,5.95
2018-09-08T03:12:11.420Z,5.86
2018-09-08T03:13:46.725Z,5.90
2018-09-08T03:15:20.492Z,5.91
2018-09-08T03:16:54.080Z,5.84
2018-09-08T03:18:28.195Z,5.88
2018-09-08T03:20:02.220Z,5.85
2018-09-08T03:21:36.451Z,5.86
2018-09-08T03:23:09.799Z,5.82
2018-09-08T03:24:43.530Z,5.83
2018-09-08T03:26:18.381Z,5.81
2018-09-08T03:27:51.641Z,5.87
2018-09-08T03:29:24.826Z,5.95
2018-09-08T03:30:58.584Z,5.91
2018-09-08T03:32:32.358Z,5.85
2018-09-08T03:34:06.612Z,5.87
2018-09-08T03:35:39.961Z,5.84
2018-09-08T03:37:13.842Z,5.85
2018-09-08T03:38:47.204Z,5.94
2018-09-08T03:40:20.727Z,5.87
2018-09-08T03:41:54.375Z,5.92
2018-09-08T03:43:28.101Z,5.86
2018-09-08T03:45:01.478Z,5.84
2018-09-08T03:46:36.443Z,5.91
2018-09-08T03:48:09.739Z,5.91
2018-09-08T03:49:43.548Z,5.87
2018-09-08T03:51:17.161Z,5.93
2018-09-08T03:52:50.830Z,5.95
2018-09-08T03:55:38.504Z,6.01
2018-09-08T03:57:12.296Z,5.94
2018-09-08T03:58:45.504Z,5.92
2018-09-08T04:00:18.961Z,6.06
2018-09-08T04:01:52.732Z,6.05
2018-09-08T04:03:28.228Z,5.94
2018-09-08T04:05:03.470Z,5.82
2018-09-08T04:06:38.700Z,5.94
2018-09-08T04:08:13.963Z,5.93
2018-09-08T04:09:49.863Z,5.88
2018-09-08T04:11:25.417Z,5.87
2018-09-08T04:13:00.263Z,5.86
2018-09-08T04:14:36.517Z,5.81
2018-09-08T04:16:11.420Z,5.86
2018-09-08T04:17:46.345Z,5.87
2018-09-08T04:19:21.446Z,5.88
2018-09-08T04:20:56.709Z,5.88
2018-09-08T04:22:36.191Z,5.99
2018-09-08T04:24:11.199Z,5.97
2018-09-08T04:25:46.159Z,5.95
2018-09-08T04:27:20.952Z,5.97
2018-09-08T04:28:56.310Z,5.92
2018-09-08T04:30:31.422Z,5.94
2018-09-08T04:32:06.418Z,5.86
2018-09-08T04:33:43.244Z,5.91
2018-09-08T04:35:20.048Z,5.91
2018-09-08T04:36:54.860Z,5.90
2018-09-08T04:38:29.655Z,5.94
2018-09-08T04:40:04.599Z,5.88
2018-09-08T04:41:39.783Z,5.94
2018-09-08T04:43:14.775Z,5.94
2018-09-08T04:44:50.211Z,5.97
2018-09-08T04:46:25.642Z,6.00
2018-09-08T04:48:00.562Z,6.01
2018-09-08T04:49:35.801Z,5.89
2018-09-08T04:51:19.811Z,5.96
2018-09-08T04:53:03.539Z,5.87
2018-09-08T04:54:38.427Z,5.95
2018-09-08T04:56:14.404Z,6.02
2018-09-08T04:57:49.441Z,5.96
2018-09-08T04:59:24.338Z,6.06
2018-09-08T05:00:59.431Z,6.05
2018-09-08T05:02:34.414Z,6.11
2018-09-08T05:04:11.422Z,6.05
2018-09-08T05:05:47.448Z,6.07
2018-09-08T05:07:22.489Z,6.04
2018-09-08T05:08:59.550Z,6.11
2018-09-08T05:10:35.111Z,6.10
2018-09-08T05:12:10.688Z,5.99
2018-09-08T05:13:45.596Z,6.07
2018-09-08T05:15:20.648Z,6.09
2018-09-08T05:16:55.497Z,6.11
2018-09-08T05:18:30.351Z,6.13
2018-09-08T05:20:06.104Z,6.15
2018-09-08T05:21:41.106Z,6.08
2018-09-08T05:23:20.168Z,6.17
2018-09-08T05:24:55.582Z,6.18
2018-09-08T05:26:30.776Z,6.17
2018-09-08T05:28:05.983Z,6.24
2018-09-08T05:29:42.409Z,6.33
2018-09-08T05:31:18.523Z,6.35
2018-09-08T05:32:53.434Z,6.30
2018-09-08T05:34:29.921Z,6.34
2018-09-08T05:36:05.626Z,6.36
2018-09-08T05:37:40.820Z,6.40
2018-09-08T05:39:16.673Z,6.37
2018-09-08T05:40:53.546Z,6.42
2018-09-08T05:42:30.096Z,6.51
2018-09-08T05:44:05.040Z,6.47
2018-09-08T05:45:40.425Z,6.50
2018-09-08T05:47:15.617Z,6.48
2018-09-08T05:48:58.422Z,6.60
2018-09-08T05:50:33.300Z,6.70
2018-09-08T05:52:08.137Z,6.69
2018-09-08T05:53:43.048Z,6.69
2018-09-08T05:55:18.106Z,6.74
2018-09-08T05:56:54.564Z,6.77
2018-09-08T05:58:29.708Z,6.87
2018-09-08T06:00:08.061Z,6.89
2018-09-08T06:01:44.050Z,6.95
2018-09-08T06:03:19.464Z,6.96
2018-09-08T06:04:54.819Z,6.99
2018-09-08T06:06:29.641Z,7.01
2018-09-08T06:08:04.723Z,7.10
2018-09-08T06:09:39.606Z,7.24
2018-09-08T06:11:16.324Z,7.25
2018-09-08T06:12:54.772Z,7.43
2018-09-08T06:14:32.056Z,7.61
2018-09-08T06:16:07.029Z,7.76
2018-09-08T06:17:46.392Z,8.00
2018-09-08T06:19:21.455Z,8.11
2018-09-08T06:20:57.222Z,8.39
2018-09-08T06:22:32.261Z,8.65
2018-09-08T06:24:07.304Z,8.80
2018-09-08T06:25:42.302Z,8.86
2018-09-08T06:27:17.928Z,9.06
2018-09-08T06:28:53.514Z,9.17
2018-09-08T06:30:28.916Z,9.30
2018-09-08T06:32:03.988Z,9.41
2018-09-08T06:33:40.905Z,9.42
2018-09-08T06:35:16.913Z,9.50
2018-09-08T06:36:53.558Z,9.63
2018-09-08T06:38:28.555Z,9.55
2018-09-08T06:40:03.920Z,9.55
2018-09-08T06:41:39.028Z,9.63
2018-09-08T06:43:14.623Z,9.72
2018-09-08T06:44:50.808Z,9.75
2018-09-08T06:46:26.763Z,9.74
2018-09-08T06:48:02.771Z,9.96
2018-09-08T06:49:38.555Z,10.07
2018-09-08T06:51:13.752Z,10.10
2018-09-08T06:52:49.088Z,9.98
2018-09-08T06:54:24.449Z,10.04
2018-09-08T06:55:59.483Z,10.17
2018-09-08T06:57:34.932Z,10.21
2018-09-08T06:59:09.868Z,10.26
2018-09-08T07:00:45.683Z,10.34
2018-09-08T07:02:20.788Z,10.20
2018-09-08T07:03:56.858Z,10.30
2018-09-08T07:05:33.144Z,10.24
2018-09-08T07:07:13.970Z,10.25
2018-09-08T07:08:49.977Z,10.25
2018-09-08T07:10:26.915Z,10.36
2018-09-08T07:12:01.764Z,10.28
2018-09-08T07:13:37.595Z,10.41
2018-09-08T07:15:14.898Z,10.50
2018-09-08T07:16:50.079Z,10.65
2018-09-08T07:18:25.721Z,10.75
2018-09-08T07:20:00.505Z,10.77
2018-09-08T07:21:36.878Z,10.75
2018-09-08T07:23:13.275Z,10.93
2018-09-08T07:24:50.563Z,11.11
2018-09-08T07:26:25.674Z,11.17
2018-09-08T07:28:00.873Z,11.45
2018-09-08T07:29:37.556Z,11.41
2018-09-08T07:31:13.286Z,11.49
2018-09-08T07:32:48.376Z,11.74
2018-09-08T07:34:23.604Z,11.88
2018-09-08T07:35:58.951Z,11.81
2018-09-08T07:37:34.375Z,11.97
2018-09-08T07:39:11.314Z,12.09
2018-09-08T07:40:46.253Z,12.29
2018-09-08T07:42:21.254Z,12.32
2018-09-08T07:43:58.204Z,12.08
2018-09-08T07:45:33.704Z,12.10
2018-09-08T07:47:08.606Z,12.34
2018-09-08T07:48:43.438Z,12.52
2018-09-08T07:50:18.822Z,12.52
2018-09-08T07:51:56.009Z,12.38
2018-09-08T07:53:31.047Z,12.34
2018-09-08T07:55:06.080Z,12.26
2018-09-08T07:56:43.060Z,12.39
2018-09-08T07:58:18.375Z,12.40
2018-09-08T07:59:53.556Z,12.55
2018-09-08T08:01:28.376Z,12.61
2018-09-08T08:03:04.005Z,12.69
2018-09-08T08:04:39.602Z,12.60
2018-09-08T08:06:15.335Z,12.69
2018-09-08T08:07:52.461Z,12.62
2018-09-08T08:09:29.643Z,12.52
2018-09-08T08:11:06.691Z,12.47
2018-09-08T08:12:42.036Z,12.56
2018-09-08T08:14:18.293Z,12.50
2018-09-08T08:15:53.923Z,12.67
2018-09-08T08:17:32.292Z,12.69
2018-09-08T08:19:07.924Z,12.74
2018-09-08T08:20:44.503Z,12.75
2018-09-08T08:22:23.061Z,12.84
2018-09-08T08:23:59.185Z,12.95
2018-09-08T08:25:36.631Z,12.97
2018-09-08T08:27:12.321Z,12.98
2018-09-08T08:28:49.522Z,13.25
2018-09-08T08:30:26.240Z,13.46
2018-09-08T08:32:02.408Z,13.59
2018-09-08T08:33:40.832Z,13.16
2018-09-08T08:35:18.305Z,13.19
2018-09-08T08:36:53.774Z,13.37
2018-09-08T08:38:29.291Z,13.58
2018-09-08T08:40:04.653Z,13.58
2018-09-08T08:41:40.623Z,13.51
2018-09-08T08:43:16.287Z,13.55
2018-09-08T08:44:51.848Z,13.79
2018-09-08T08:46:27.606Z,13.90
2018-09-08T08:48:05.259Z,13.56
2018-09-08T08:49:40.808Z,13.74
2018-09-08T08:51:26.768Z,13.92
2018-09-08T08:53:12.434Z,13.85
2018-09-08T08:54:52.753Z,13.82
2018-09-08T08:56:28.429Z,14.01
2018-09-08T08:58:03.969Z,14.18
2018-09-08T08:59:40.802Z,14.30
2018-09-08T09:01:16.511Z,14.47
2018-09-08T09:02:52.981Z,14.63
2018-09-08T09:04:28.071Z,15.03
2018-09-08T09:06:03.663Z,15.44
2018-09-08T09:07:40.544Z,15.35
2018-09-08T09:09:17.341Z,15.36
2018-09-08T09:10:52.450Z,15.79
2018-09-08T09:12:27.900Z,15.83
2018-09-08T09:14:03.016Z,15.75
2018-09-08T09:15:38.311Z,15.88
2018-09-08T09:17:15.052Z,15.55
2018-09-08T09:19:02.140Z,15.48
2018-09-08T09:20:48.582Z,15.07
2018-09-08T09:22:38.420Z,15.37
2018-09-08T09:24:58.078Z,15.45
2018-09-08T09:26:34.302Z,15.68
2018-09-08T09:28:10.195Z,15.28
2018-09-08T09:29:46.366Z,14.73
2018-09-08T09:31:22.202Z,14.87
2018-09-08T09:32:59.267Z,14.83
2018-09-08T09:34:34.803Z,15.00
2018-09-08T09:36:11.561Z,15.24
2018-09-08T09:37:47.208Z,15.26
2018-09-08T09:39:22.712Z,15.63
2018-09-08T09:40:57.709Z,15.78
2018-09-08T09:42:32.980Z,15.94
2018-09-08T09:44:08.640Z,16.05
2018-09-08T09:45:45.406Z,16.10
2018-09-08T09:47:20.798Z,16.04
2018-09-08T09:49:01.093Z,16.44
2018-09-08T09:50:36.158Z,16.68
2018-09-08T09:52:11.524Z,16.38
2018-09-08T09:53:47.231Z,16.47
2018-09-08T09:55:24.152Z,16.54
2018-09-08T09:57:00.235Z,16.79
2018-09-08T09:58:35.755Z,16.70
2018-09-08T10:00:15.781Z,16.71
2018-09-08T10:01:57.889Z,16.54
2018-09-08T10:03:35.728Z,15.91
2018-09-08T10:05:18.908Z,15.97
2018-09-08T10:06:54.781Z,15.76
2018-09-08T10:08:31.035Z,16.25
2018-09-08T10:10:06.218Z,16.43
2018-09-08T10:11:41.864Z,16.65
2018-09-08T10:13:17.105Z,16.78
2018-09-08T10:14:53.484Z,16.59
2018-09-08T10:16:29.635Z,16.43
2018-09-08T10:18:08.458Z,16.69
2018-09-08T10:19:45.235Z,16.47
2018-09-08T10:21:20.654Z,16.65
2018-09-08T10:22:55.826Z,16.94
2018-09-08T10:24:31.920Z,17.03
2018-09-08T10:26:07.141Z,17.00
2018-09-08T10:27:42.348Z,16.90
2018-09-08T10:29:17.263Z,17.15
2018-09-08T10:30:54.496Z,17.09
2018-09-08T10:32:30.880Z,16.55
2018-09-08T10:34:06.160Z,16.39
2018-09-08T10:35:43.059Z,16.79
2018-09-08T10:37:18.118Z,16.81
2018-09-08T10:38:53.947Z,17.06
2018-09-08T10:40:30.826Z,17.19
2018-09-08T10:42:06.780Z,16.89
2018-09-08T10:43:43.791Z,17.52
2018-09-08T10:45:22.532Z,17.31
2018-09-08T10:46:58.813Z,17.87
2018-09-08T10:48:34.586Z,17.18
2018-09-08T10:50:12.161Z,17.23
2018-09-08T10:52:00.456Z,17.36
2018-09-08T10:53:39.199Z,18.04
2018-09-08T10:55:14.500Z,17.67
2018-09-08T10:56:52.729Z,17.46
2018-09-08T10:58:29.202Z,16.98
2018-09-08T11:00:08.204Z,17.17
2018-09-08T11:01:45.707Z,16.96
2018-09-08T11:03:23.609Z,16.44
2018-09-08T11:04:58.922Z,16.65
2018-09-08T11:06:37.937Z,17.18
2018-09-08T11:08:13.089Z,17.33
2018-09-08T11:09:49.381Z,17.20
2018-09-08T11:11:26.517Z,17.41
2018-09-08T11:13:03.225Z,17.98
2018-09-08T11:14:39.332Z,17.74
2018-09-08T11:16:18.014Z,17.16
2018-09-08T11:17:58.814Z,17.21
2018-09-08T11:19:37.226Z,16.88
2018-09-08T11:21:14.290Z,17.31
2018-09-08T11:22:53.048Z,17.00
2018-09-08T11:24:31.537Z,17.12
2018-09-08T11:26:06.943Z,17.22
2018-09-08T11:27:45.938Z,17.25
2018-09-08T11:29:23.151Z,17.35
2018-09-08T11:30:58.580Z,17.20
2018-09-08T11:32:35.957Z,17.03
2018-09-08T11:34:11.785Z,16.92
2018-09-08T11:35:47.639Z,16.74
2018-09-08T11:37:22.835Z,16.57
2018-09-08T11:38:58.439Z,16.44
2018-09-08T11:40:34.407Z,17.29
2018-09-08T11:42:10.827Z,17.47
2018-09-08T11:43:46.702Z,17.84
2018-09-08T11:45:23.317Z,17.93
2018-09-08T11:47:00.150Z,17.67
2018-09-08T11:48:37.032Z,18.07
2018-09-08T11:50:14.931Z,18.20
2018-09-08T11:51:51.590Z,18.42
2018-09-08T11:53:27.705Z,18.40
2018-09-08T11:55:03.650Z,18.95
2018-09-08T11:56:39.489Z,19.45
2018-09-08T11:58:16.240Z,19.42
2018-09-08T11:59:51.734Z,19.36
2018-09-08T12:01:26.983Z,19.56
2018-09-08T12:03:02.278Z,19.39
2018-09-08T12:04:37.908Z,19.14
2018-09-08T12:06:13.864Z,19.36
2018-09-08T12:07:50.663Z,19.27
2018-09-08T12:09:28.621Z,19.22
2018-09-08T12:11:05.744Z,19.68
2018-09-08T12:12:56.012Z,19.84
2018-09-08T12:14:31.451Z,20.10
2018-09-08T12:16:08.713Z,20.35
2018-09-08T12:17:45.408Z,20.03
2018-09-08T12:19:20.693Z,20.02
2018-09-08T12:20:56.229Z,20.19
2018-09-08T12:22:31.773Z,20.47
2018-09-08T12:24:07.148Z,20.32
2018-09-08T12:25:43.702Z,19.17
2018-09-08T12:27:19.906Z,19.43
2018-09-08T12:29:00.289Z,18.84
2018-09-08T12:30:35.972Z,18.07
2018-09-08T12:32:13.665Z,18.18
2018-09-08T12:33:50.744Z,18.46
2018-09-08T12:35:25.753Z,18.71
2018-09-08T12:37:01.221Z,18.89
2018-09-08T12:38:36.726Z,19.05
2018-09-08T12:43:36.101Z,19.08
2018-09-08T12:45:13.081Z,19.23
2018-09-08T12:46:52.239Z,19.30
2018-09-08T12:48:28.405Z,19.29
2018-09-08T12:50:06.386Z,19.24
2018-09-08T12:51:47.804Z,19.32
2018-09-08T12:53:23.887Z,19.58
2018-09-08T12:55:00.087Z,19.38
2018-09-08T12:56:34.976Z,19.42
2018-09-08T12:58:14.066Z,19.75
2018-09-08T12:59:50.120Z,19.90
2018-09-08T13:01:26.469Z,20.00
2018-09-08T13:03:05.605Z,19.88
2018-09-08T13:04:43.936Z,19.80
2018-09-08T13:06:18.887Z,19.70
2018-09-08T13:07:54.997Z,19.43
2018-09-08T13:09:29.887Z,19.78
2018-09-08T13:11:05.646Z,19.78
2018-09-08T13:12:40.597Z,19.67
2018-09-08T13:14:17.427Z,19.83
2018-09-08T13:15:54.634Z,19.61
2018-09-08T13:17:29.679Z,19.21
2018-09-08T13:19:05.906Z,19.01
2018-09-08T13:20:40.771Z,19.09
2018-09-08T13:22:16.531Z,19.20
2018-09-08T13:23:55.055Z,19.16
2018-09-08T13:25:30.274Z,19.36
2018-09-08T13:27:08.124Z,19.18
2018-09-08T13:28:43.364Z,19.46
2018-09-08T13:30:21.422Z,19.37
2018-09-08T13:32:16.266Z,19.38
2018-09-08T13:33:51.468Z,19.43
2018-09-08T13:35:26.564Z,18.89
2018-09-08T13:37:03.077Z,18.75
2018-09-08T13:38:38.259Z,18.79
2018-09-08T13:40:17.604Z,18.90
2018-09-08T13:41:52.670Z,18.87
2018-09-08T13:43:28.853Z,19.01
2018-09-08T13:45:07.659Z,18.97
2018-09-08T13:46:45.286Z,19.15
2018-09-08T13:48:21.718Z,19.17
2018-09-08T13:49:57.099Z,19.37
2018-09-08T13:51:34.314Z,19.02
2018-09-08T13:53:12.543Z,19.05
2018-09-08T13:54:49.582Z,19.21
2018-09-08T13:56:25.925Z,19.12
2018-09-08T13:58:02.240Z,18.88
2018-09-08T13:59:38.728Z,18.76
2018-09-08T14:01:16.065Z,18.79
2018-09-08T14:02:52.568Z,19.07
2018-09-08T14:04:27.630Z,19.01
2018-09-08T14:06:03.381Z,19.38
2018-09-08T14:08:00.401Z,19.70
2018-09-08T14:09:39.809Z,19.51
2018-09-08T14:11:25.575Z,19.10
2018-09-08T14:13:00.641Z,18.89
2018-09-08T14:14:37.620Z,18.71
2018-09-08T14:16:17.592Z,18.81
2018-09-08T14:18:02.533Z,18.59
2018-09-08T14:21:31.346Z,18.70
2018-09-08T14:23:12.346Z,18.59
2018-09-08T14:24:48.567Z,18.79
2018-09-08T14:26:24.852Z,19.13
2018-09-08T14:28:02.850Z,19.26
2018-09-08T14:29:39.812Z,19.14
2018-09-08T14:31:19.044Z,18.95
2018-09-08T14:32:54.497Z,18.86
2018-09-08T14:34:29.829Z,18.83
2018-09-08T14:36:07.278Z,18.87
2018-09-08T14:37:42.402Z,19.23
2018-09-08T14:39:18.322Z,19.49
2018-09-08T14:40:53.127Z,19.65
2018-09-08T14:42:33.042Z,19.61
2018-09-08T14:44:11.563Z,19.33
2018-09-08T14:45:58.790Z,19.13
2018-09-08T14:47:35.751Z,18.83
2018-09-08T14:49:23.850Z,19.22
2018-09-08T14:56:27.624Z,19.22
2018-09-08T14:58:08.728Z,19.57
2018-09-08T14:59:48.598Z,19.67
2018-09-08T15:01:27.308Z,19.72
2018-09-08T15:03:10.259Z,19.89
2018-09-08T15:04:54.929Z,19.97
2018-09-08T15:06:34.320Z,20.10
2018-09-08T20:35:33.882Z,12.03
2018-09-08T20:37:15.669Z,12.00
2018-09-08T20:39:01.332Z,12.00
2018-09-08T20:40:42.865Z,12.07
2018-09-08T20:42:37.542Z,12.03
2018-09-08T20:44:14.937Z,12.00
2018-09-08T20:47:42.347Z,11.98
2018-09-08T20:52:07.024Z,11.98
2018-09-08T20:53:45.921Z,12.01
2018-09-08T20:55:29.663Z,12.07
2018-09-08T20:57:12.272Z,12.06
2018-09-08T20:58:52.857Z,12.10
2018-09-08T21:00:32.115Z,12.15
2018-09-08T21:02:15.704Z,12.09
2018-09-08T21:03:55.449Z,12.10
2018-09-08T21:05:32.917Z,12.11
2018-09-08T21:07:09.559Z,12.15
2018-09-08T21:08:49.362Z,12.15
2018-09-08T21:10:31.058Z,12.14
2018-09-08T21:12:15.493Z,12.19
2018-09-08T21:13:52.487Z,12.11
2018-09-08T21:15:34.872Z,12.11
2018-09-08T21:17:17.735Z,12.17
2018-09-08T21:18:53.901Z,12.16
2018-09-08T21:20:35.637Z,12.12
2018-09-08T21:22:16.359Z,12.11
2018-09-08T21:23:55.189Z,12.13
2018-09-08T21:25:34.856Z,12.11
2018-09-08T21:27:13.629Z,12.07
2018-09-08T21:28:50.518Z,12.14
2018-09-08T21:30:26.850Z,12.11
2018-09-08T21:32:04.240Z,12.12
2018-09-08T21:33:40.687Z,12.10
2018-09-08T21:35:17.515Z,12.09
2018-09-08T21:36:56.622Z,12.11
2018-09-08T21:38:35.604Z,12.08
2018-09-08T21:40:18.790Z,12.07
2018-09-08T21:41:56.605Z,12.05
2018-09-08T21:43:37.330Z,12.08
2018-09-08T21:45:17.359Z,12.14
2018-09-08T21:46:53.916Z,12.12
2018-09-08T21:48:30.324Z,12.07
2018-09-08T21:50:10.781Z,12.09
2018-09-08T21:51:47.334Z,12.04
2018-09-08T21:55:14.887Z,12.06
2018-09-08T21:56:55.633Z,12.00
2018-09-08T21:58:35.884Z,11.95
2018-09-08T22:00:17.279Z,11.92
2018-09-08T22:01:56.988Z,11.91
2018-09-08T22:03:41.568Z,11.89
2018-09-08T22:05:22.295Z,11.84
2018-09-08T22:07:02.013Z,11.80
2018-09-08T22:08:42.822Z,11.78
2018-09-08T22:10:21.503Z,11.87
2018-09-08T22:11:58.722Z,11.90
2018-09-08T22:13:44.214Z,11.94
2018-09-08T22:15:26.076Z,11.93
2018-09-08T22:17:04.879Z,11.94
2018-09-08T22:18:41.917Z,11.93
2018-09-08T22:20:18.764Z,11.88
2018-09-08T22:23:46.344Z,11.95
2018-09-08T22:25:26.642Z,11.94
2018-09-08T22:27:14.244Z,11.96
2018-09-08T22:28:54.928Z,11.88
2018-09-08T22:30:38.697Z,11.83
2018-09-08T22:32:16.533Z,11.81
2018-09-08T22:33:57.604Z,11.77
2018-09-08T22:35:40.149Z,11.74
2018-09-08T22:37:20.694Z,11.74
2018-09-08T22:39:00.381Z,11.79
2018-09-08T22:40:37.941Z,11.79
2018-09-08T22:42:16.358Z,11.78
2018-09-08T22:43:59.968Z,11.87
2018-09-08T22:45:36.777Z,11.88
2018-09-08T22:47:17.544Z,11.92
2018-09-08T22:48:56.993Z,11.93
2018-09-08T22:50:36.040Z,11.86
2018-09-08T22:52:13.406Z,11.82
2018-09-08T22:53:48.759Z,11.82
2018-09-08T22:55:23.704Z,11.88
2018-09-08T22:56:59.613Z,11.86
2018-09-08T22:58:34.840Z,11.80
2018-09-08T23:00:13.697Z,11.77
2018-09-08T23:01:50.388Z,11.78
2018-09-08T23:03:27.760Z,11.81
2018-09-08T23:05:10.085Z,11.88
2018-09-08T23:06:45.508Z,11.90
2018-09-08T23:08:23.305Z,11.97
2018-09-08T23:10:00.475Z,11.89
2018-09-08T23:11:43.628Z,11.90
2018-09-08T23:13:31.568Z,11.87
2018-09-08T23:15:12.380Z,11.81
2018-09-08T23:16:54.027Z,11.83
2018-09-08T23:18:30.248Z,11.91
2018-09-08T23:20:06.670Z,11.98
2018-09-08T23:21:45.330Z,11.93
2018-09-08T23:23:27.978Z,11.86
2018-09-08T23:25:07.393Z,11.83
2018-09-08T23:26:44.493Z,11.79
2018-09-08T23:28:23.544Z,11.91
2018-09-08T23:30:03.482Z,11.95
2018-09-08T23:31:42.638Z,11.92
2018-09-08T23:33:21.281Z,11.85
2018-09-08T23:34:59.595Z,11.77
2018-09-08T23:36:42.777Z,11.71
2018-09-08T23:38:22.827Z,11.70
2018-09-08T23:45:03.230Z,11.66
2018-09-08T23:46:39.333Z,11.72
2018-09-08T23:48:15.675Z,11.71
2018-09-08T23:49:51.258Z,11.67
2018-09-08T23:51:26.298Z,11.60
2018-09-08T23:53:03.332Z,11.57
2018-09-08T23:54:39.594Z,11.55
2018-09-08T23:56:15.981Z,11.51
2018-09-08T23:57:52.328Z,11.56
2018-09-08T23:59:27.459Z,11.54
